Time;durP1;ratioP1;P1;durP2;ratioP2;P2;SDS_P1;SDS_P2;PMS_P1;PMS_P2;Temp;Humidity;BMP_temperature;BMP_pressure;BME280_temperature;BME280_humidity;BME280_pressure;Samples;Min_cycle;Max_cycle;Signal;HPM_P1;HPM_P2
2022/08/12 00:44:21;;;;;;;2.28;2.00;;;22.00;44.10;;;;;;5056052;28;20082;-38
2022/08/12 00:46:52;;;;;;;4.78;2.05;;;22.00;44.20;;;;;;5054335;28;20079;-38
2022/08/12 00:49:17;;;;;;;;;;;22.00;44.30;;;;;;5055889;28;20025;-39
2022/08/12 00:52:06;;;;;;;2.88;1.95;;;21.90;44.30;;;;;;5055430;28;19958;-38
2022/08/12 00:54:59;;;;;;;2.42;2.17;;;21.90;44.40;;;;;;5055698;28;20376;-39
2022/08/12 00:57:29;;;;;;;8.63;3.17;;;21.90;44.50;;;;;;5047578;28;20477;-38
2022/08/12 01:00:03;;;;;;;6.40;1.98;;;21.80;44.70;;;;;;5055383;28;20074;-39
2022/08/12 01:02:32;;;;;;;4.97;2.17;;;21.80;44.80;;;;;;5055242;28;20492;-38
2022/08/12 01:13:31;;;;;;;3.38;2.30;;;21.70;45.30;;;;;;5055858;28;20380;-39
2022/08/12 01:15:59;;;;;;;3.33;2.30;;;21.60;45.50;;;;;;5054977;28;20036;-44
2022/08/12 01:18:45;;;;;;;2.10;1.95;;;21.70;45.40;;;;;;5055194;28;20025;-38
2022/08/12 01:21:25;;;;;;;4.65;2.15;;;21.60;45.60;;;;;;5055228;28;20025;-39
2022/08/12 01:24:16;;;;;;;3.63;2.28;;;21.60;45.70;;;;;;5054814;28;20032;-39
2022/08/12 01:26:45;;;;;;;3.33;1.77;;;21.50;45.80;;;;;;5054755;28;20025;-38
2022/08/12 01:29:14;;;;;;;2.85;2.30;;;21.50;46.00;;;;;;5054885;28;20043;-38
2022/08/12 01:31:42;;;;;;;4.43;2.15;;;21.40;46.00;;;;;;5054600;28;20025;-39
2022/08/12 01:34:11;;;;;;;3.72;1.90;;;21.40;46.20;;;;;;5054710;28;20032;-39
2022/08/12 01:36:52;;;;;;;9.73;2.85;;;21.40;46.40;;;;;;5054520;28;20033;-38
2022/08/12 01:39:20;;;;;;;4.60;2.50;;;21.30;46.50;;;;;;5054721;28;20028;-38
2022/08/12 01:41:51;;;;;;;5.22;2.90;;;21.30;46.70;;;;;;5036991;28;20373;-39
2022/08/12 01:44:19;;;;;;;2.35;2.15;;;21.30;47.00;;;;;;5054473;28;20029;-39
2022/08/12 01:47:22;;;;;;;2.97;2.45;;;21.20;47.10;;;;;;5053372;28;20025;-38
2022/08/12 01:50:19;;;;;;;4.68;2.05;;;21.20;47.20;;;;;;5055005;28;20028;-39
2022/08/12 01:53:14;;;;;;;6.60;2.63;;;21.10;47.70;;;;;;5054980;28;20074;-38
2022/08/12 01:55:46;;;;;;;5.78;2.22;;;21.00;48.00;;;;;;5054326;28;20017;-39
2022/08/12 01:58:25;;;;;;;3.65;2.00;;;20.90;48.30;;;;;;5054234;28;20423;-39
2022/08/12 02:01:10;;;;;;;5.90;2.30;;;20.90;48.60;;;;;;5054227;28;20385;-38
2022/08/12 02:12:54;;;;;;;8.27;3.53;;;20.80;49.40;;;;;;5054521;28;20077;-38
2022/08/12 02:15:30;;;;;;;4.40;2.55;;;20.70;49.50;;;;;;5053883;28;20385;-37
2022/08/12 02:18:11;;;;;;;6.15;2.50;;;20.70;49.60;;;;;;5054033;28;20508;-39
2022/08/12 02:20:47;;;;;;;3.38;2.40;;;20.60;49.80;;;;;;5053880;28;20033;-39
2022/08/12 02:23:14;;;;;;;2.17;1.95;;;20.60;50.20;;;;;;5053798;28;20028;-38
2022/08/12 02:25:44;;;;;;;5.18;3.00;;;20.60;50.30;;;;;;5053619;28;20052;-38
2022/08/12 02:28:10;;;;;;;4.32;3.53;;;20.60;50.50;;;;;;5053731;28;20025;-38
2022/08/12 02:30:37;;;;;;;3.90;2.63;;;20.50;50.60;;;;;;5053583;28;20094;-39
2022/08/12 02:33:04;;;;;;;4.75;2.50;;;20.50;50.70;;;;;;5053407;28;20131;-38
2022/08/12 02:35:33;;;;;;;3.50;2.58;;;20.50;50.80;;;;;;5053427;28;20120;-40
2022/08/12 02:38:05;;;;;;;3.78;2.90;;;20.40;50.90;;;;;;5053680;28;20040;-40
2022/08/12 02:40:34;;;;;;;5.28;2.58;;;20.40;50.90;;;;;;5053603;28;20048;-38
2022/08/12 02:43:26;;;;;;;7.30;2.75;;;20.40;51.00;;;;;;5052091;28;20111;-38
2022/08/12 02:45:56;;;;;;;2.65;2.17;;;20.30;51.50;;;;;;5053925;28;20025;-39
2022/08/12 02:48:30;;;;;;;3.65;2.88;;;20.30;51.80;;;;;;5053391;28;20032;-39
2022/08/12 02:51:00;;;;;;;4.78;3.08;;;20.20;52.00;;;;;;5053182;28;20048;-38
2022/08/12 02:53:27;;;;;;;5.10;2.60;;;20.20;52.30;;;;;;5053054;28;20071;-39
2022/08/12 02:55:53;;;;;;;9.77;3.70;;;20.20;52.30;;;;;;5053253;28;20111;-38
2022/08/12 02:58:20;;;;;;;6.95;3.08;;;20.30;52.30;;;;;;5052783;28;20033;-39
2022/08/12 03:00:46;;;;;;;9.68;3.00;;;20.20;52.50;;;;;;5053436;28;20040;-39
2022/08/12 03:03:14;;;;;;;4.55;2.92;;;20.20;52.40;;;;;;5052913;28;20033;-38
2022/08/12 03:05:59;;;;;;;5.93;2.88;;;20.10;52.60;;;;;;5052616;28;20028;-38
2022/08/12 03:08:30;;;;;;;6.05;3.25;;;20.00;53.10;;;;;;5052903;28;20328;-38
2022/08/12 03:11:04;;;;;;;4.30;2.95;;;19.80;53.30;;;;;;5052899;28;20051;-38
2022/08/12 03:13:32;;;;;;;3.10;2.78;;;19.90;53.40;;;;;;5052267;28;20032;-38
2022/08/12 03:15:58;;;;;;;8.82;3.33;;;19.90;53.00;;;;;;5052383;28;20025;-38
2022/08/12 03:18:30;;;;;;;6.88;3.83;;;19.90;53.00;;;;;;5052573;28;20029;-38
2022/08/12 03:20:57;;;;;;;3.38;2.45;;;19.80;53.70;;;;;;5052869;28;20059;-38
2022/08/12 03:23:24;;;;;;;3.78;2.60;;;19.80;53.80;;;;;;5052880;28;20029;-39
2022/08/12 03:25:55;;;;;;;8.93;4.40;;;19.80;53.80;;;;;;5052871;28;20045;-38
2022/08/12 03:29:06;;;;;;;9.88;3.72;;;19.80;53.80;;;;;;5052774;28;20029;-39
2022/08/12 03:31:09;;;;;;;6.53;2.92;;;19.70;54.00;;;;;;5042311;28;20178;-38
2022/08/12 03:33:36;;;;;;;2.95;2.60;;;19.70;54.00;;;;;;5052667;28;20479;-38
2022/08/12 03:36:08;;;;;;;4.00;2.70;;;19.60;54.10;;;;;;5051375;28;20029;-38
2022/08/12 03:38:39;;;;;;;13.85;3.13;;;19.60;54.00;;;;;;5052765;28;20060;-38
2022/08/12 03:41:50;;;;;;;;;;;19.50;54.20;;;;;;5051480;28;20025;-39
2022/08/12 19:22:56;;;;;;;2.65;1.98;;;26.80;32.70;;;;;;5070629;28;20387;-39
2022/08/12 19:25:22;;;;;;;4.35;2.05;;;26.80;32.80;;;;;;5070242;28;20086;-39
2022/08/12 19:27:52;;;;;;;4.40;2.25;;;26.80;33.00;;;;;;5070644;28;20496;-39
2022/08/12 19:33:16;;;;;;;5.93;2.42;;;26.80;33.20;;;;;;5069140;28;20033;-42
2022/08/12 19:35:42;;;;;;;;;;;26.70;33.30;;;;;;5069082;28;20035;-38
2022/08/12 19:38:12;;;;;;;3.40;2.25;;;26.70;33.50;;;;;;5070315;28;19909;-39
2022/08/12 19:40:39;;;;;;;5.00;2.10;;;26.60;33.70;;;;;;5070678;28;20100;-39
2022/08/12 19:43:09;;;;;;;3.33;1.75;;;26.50;33.90;;;;;;5070310;28;20380;-39
2022/08/12 19:45:36;;;;;;;5.13;2.80;;;26.40;34.10;;;;;;5070435;28;20020;-40
2022/08/12 19:48:11;;;;;;;3.17;2.25;;;26.40;34.20;;;;;;5070297;28;20021;-40
2022/08/12 19:50:39;;;;;;;7.10;2.28;;;26.30;34.30;;;;;;5070099;28;20131;-38
2022/08/12 19:53:05;;;;;;;3.42;2.55;;;26.30;34.40;;;;;;5068873;28;20028;-38
2022/08/12 19:55:37;;;;;;;3.83;2.40;;;26.20;34.50;;;;;;5068564;28;20025;-40
2022/08/12 19:58:13;;;;;;;2.10;1.88;;;26.10;34.60;;;;;;5069866;28;20480;-38
2022/08/12 20:00:41;;;;;;;5.68;2.35;;;26.10;34.70;;;;;;5068544;28;20384;-39
2022/08/12 20:03:09;;;;;;;9.45;2.58;;;26.10;34.80;;;;;;5051957;28;20024;-39
2022/08/12 20:05:36;;;;;;;5.97;2.35;;;26.00;34.60;;;;;;5069608;28;20028;-38
2022/08/12 20:08:05;;;;;;;6.22;3.92;;;26.00;34.70;;;;;;5068323;28;20477;-38
2022/08/12 20:10:33;;;;;;;9.88;5.40;;;26.00;34.80;;;;;;5069448;28;20381;-39
2022/08/12 20:13:01;;;;;;;8.95;5.15;;;25.90;34.90;;;;;;5068650;28;20021;-38
2022/08/12 20:15:28;;;;;;;3.38;2.50;;;26.00;34.70;;;;;;5068253;28;20565;-38
2022/08/12 20:17:56;;;;;;;5.65;3.55;;;25.90;34.70;;;;;;5068386;28;20383;-38
2022/08/12 20:20:22;;;;;;;4.75;3.00;;;25.80;34.90;;;;;;5070193;28;20044;-38
2022/08/12 20:22:48;;;;;;;5.40;2.92;;;25.70;35.00;;;;;;5069190;28;20048;-38
2022/08/12 20:25:16;;;;;;;5.40;2.33;;;25.60;35.10;;;;;;5068366;28;20032;-39
2022/08/12 20:27:44;;;;;;;3.95;2.50;;;25.50;35.10;;;;;;5070159;28;20048;-38
2022/08/12 20:30:12;;;;;;;6.43;2.47;;;25.50;35.20;;;;;;5069539;28;20025;-39
2022/08/12 20:32:48;;;;;;;14.65;2.63;;;25.50;35.20;;;;;;5064939;28;20097;-38
2022/08/12 20:35:15;;;;;;;9.13;4.53;;;25.40;35.30;;;;;;5054213;28;20028;-38
2022/08/12 20:37:41;;;;;;;8.60;2.25;;;25.40;35.30;;;;;;5055714;28;20032;-37
2022/08/12 20:40:07;;;;;;;5.65;3.53;;;25.40;35.20;;;;;;5054077;28;20095;-38
2022/08/12 20:42:33;;;;;;;4.15;3.72;;;25.40;35.30;;;;;;5054428;28;20025;-39
2022/08/12 20:44:59;;;;;;;7.63;5.40;;;25.40;35.40;;;;;;5037486;28;20071;-39
2022/08/12 20:47:25;;;;;;;14.68;6.47;;;25.40;35.30;;;;;;5053845;28;20063;-38
2022/08/12 20:49:50;;;;;;;13.50;5.53;;;25.30;35.30;;;;;;5055234;28;20071;-39
2022/08/12 20:52:17;;;;;;;5.40;4.05;;;25.30;35.50;;;;;;5055166;28;20029;-39
2022/08/12 20:54:49;;;;;;;5.80;4.20;;;25.20;35.50;;;;;;5055498;28;20032;-40
2022/08/12 20:57:17;;;;;;;7.20;3.70;;;25.10;36.00;;;;;;5054063;28;20021;-38
2022/08/12 20:59:44;;;;;;;10.10;5.15;;;25.00;35.90;;;;;;5055045;28;20029;-40
2022/08/12 21:02:12;;;;;;;13.07;3.78;;;25.00;36.00;;;;;;5055311;28;20039;-39
2022/08/12 21:07:22;;;;;;;6.25;2.42;;;24.80;36.30;;;;;;5055706;28;20044;-37
2022/08/12 21:09:49;;;;;;;5.65;2.35;;;24.80;36.50;;;;;;5054921;28;20017;-38
2022/08/12 21:12:20;;;;;;;3.08;1.90;;;24.80;36.60;;;;;;5055423;28;20027;-39
2022/08/12 21:14:48;;;;;;;7.50;2.28;;;24.70;36.60;;;;;;5055212;28;20033;-38
2022/08/12 21:17:15;;;;;;;4.97;3.13;;;24.70;36.60;;;;;;5053534;28;20053;-40
2022/08/12 21:19:42;;;;;;;4.15;2.28;;;24.60;36.80;;;;;;5055144;28;20100;-38
2022/08/12 21:22:10;;;;;;;4.00;2.40;;;24.50;37.00;;;;;;5054389;28;20132;-42
2022/08/12 21:24:36;;;;;;;5.25;2.20;;;24.60;37.10;;;;;;5053319;28;20021;-38
2022/08/12 21:27:03;;;;;;;8.57;1.90;;;24.60;37.10;;;;;;5054974;28;20029;-38
2022/08/12 21:29:30;;;;;;;3.95;1.77;;;24.50;37.30;;;;;;5053443;28;20021;-38
2022/08/12 21:32:00;;;;;;;5.22;2.17;;;24.50;37.40;;;;;;5054940;28;20025;-38
2022/08/12 21:34:29;;;;;;;9.75;2.63;;;24.40;37.50;;;;;;5055117;28;20020;-39
2022/08/12 21:37:00;;;;;;;3.27;1.77;;;24.30;37.60;;;;;;5054624;28;20102;-39
2022/08/12 21:39:26;;;;;;;4.68;1.92;;;24.30;37.80;;;;;;5054796;28;20021;-38
2022/08/12 21:41:55;;;;;;;3.28;1.98;;;24.20;38.10;;;;;;5053713;28;20512;-39
2022/08/12 21:44:22;;;;;;;10.98;2.15;;;24.30;38.10;;;;;;5052332;28;20128;-40
2022/08/12 21:46:50;;;;;;;3.72;2.38;;;24.20;38.10;;;;;;5053292;28;20049;-40
2022/08/12 21:49:20;;;;;;;4.50;2.00;;;24.00;38.50;;;;;;5053314;28;20032;-39
2022/08/12 21:51:51;;;;;;;7.03;2.00;;;23.90;38.80;;;;;;5053237;28;20469;-39
2022/08/12 21:54:19;;;;;;;5.60;2.25;;;23.90;38.90;;;;;;5054372;28;20059;-40
2022/08/12 21:56:46;;;;;;;4.05;2.30;;;23.80;39.10;;;;;;5036767;28;20029;-39
2022/08/12 21:59:15;;;;;;;8.32;3.25;;;23.80;38.80;;;;;;5053136;28;20029;-38
2022/08/12 22:01:43;;;;;;;7.23;2.57;;;23.80;39.20;;;;;;5052981;28;20032;-39
2022/08/12 22:06:54;;;;;;;6.15;3.15;;;23.70;39.20;;;;;;5053982;28;20162;-39
2022/08/12 22:09:25;;;;;;;8.02;2.90;;;23.60;39.20;;;;;;5053436;28;20477;-40
2022/08/12 22:11:53;;;;;;;3.72;2.65;;;23.50;39.30;;;;;;5053801;28;20032;-37
2022/08/12 22:14:20;;;;;;;6.18;2.53;;;23.50;39.60;;;;;;5053535;28;20024;-39
2022/08/12 22:16:46;;;;;;;4.43;2.40;;;23.50;39.70;;;;;;5053493;28;20025;-40
2022/08/12 22:19:16;;;;;;;5.57;2.00;;;23.50;39.80;;;;;;5053748;28;20369;-40
2022/08/12 22:21:42;;;;;;;5.47;2.38;;;23.30;40.00;;;;;;5053566;28;20404;-39
2022/08/12 22:24:08;;;;;;;2.85;1.90;;;23.30;40.20;;;;;;5052202;28;20029;-38
2022/08/12 22:26:35;;;;;;;5.80;2.70;;;23.30;40.30;;;;;;5053798;28;20025;-41
2022/08/12 22:31:46;;;;;;;3.88;2.78;;;23.20;40.30;;;;;;5054193;28;20106;-40
2022/08/12 22:34:12;;;;;;;4.72;2.03;;;23.20;40.50;;;;;;5054152;28;20060;-38
2022/08/12 22:36:38;;;;;;;2.63;1.60;;;23.20;40.40;;;;;;5053192;28;20025;-39
2022/08/12 22:39:07;;;;;;;4.55;1.98;;;23.20;40.50;;;;;;5051846;28;20063;-39
2022/08/12 22:49:46;;;;;;;3.58;1.92;;;23.00;40.90;;;;;;5053349;28;20079;-39
2022/08/12 22:52:12;;;;;;;2.25;1.85;;;23.00;40.90;;;;;;5051786;28;20067;-39
2022/08/12 22:54:39;;;;;;;8.60;2.33;;;22.90;41.00;;;;;;5053204;28;20115;-39
2022/08/12 22:57:05;;;;;;;6.38;1.73;;;22.90;41.10;;;;;;5051560;28;20074;-38
2022/08/12 22:59:32;;;;;;;2.33;1.42;;;22.80;41.40;;;;;;5053005;28;20468;-39
2022/08/12 23:01:57;;;;;;;5.07;2.15;;;22.70;41.50;;;;;;5053277;28;20029;-39
2022/08/12 23:04:24;;;;;;;2.55;1.42;;;22.60;41.80;;;;;;5053201;28;20032;-39
2022/08/12 23:06:55;;;;;;;4.32;2.08;;;22.50;41.90;;;;;;5052824;28;20021;-39
2022/08/12 23:09:26;;;;;;;2.00;1.65;;;22.50;42.00;;;;;;5053089;28;20025;-40
2022/08/12 23:11:53;;;;;;;6.00;2.03;;;22.40;42.30;;;;;;5053123;28;20361;-38
2022/08/12 23:14:19;;;;;;;3.00;1.80;;;22.40;42.30;;;;;;5052602;28;20090;-39
2022/08/12 23:16:48;;;;;;;2.50;1.80;;;22.30;42.50;;;;;;5052730;28;20029;-38
2022/08/12 23:19:17;;;;;;;4.05;2.03;;;22.30;42.60;;;;;;5052849;28;20409;-39
2022/08/12 23:21:50;;;;;;;6.85;2.00;;;22.30;43.00;;;;;;5052429;28;20041;-39
2022/08/12 23:24:17;;;;;;;4.43;2.35;;;22.20;43.10;;;;;;5052993;28;20056;-39
2022/08/12 23:29:28;;;;;;;7.22;1.90;;;22.10;43.50;;;;;;5053224;28;20155;-39
2022/08/12 23:31:56;;;;;;;2.72;2.17;;;22.00;43.80;;;;;;5051376;28;20472;-39
2022/08/12 23:34:28;;;;;;;7.65;1.88;;;22.00;43.80;;;;;;5052986;28;20064;-39
2022/08/12 23:36:54;;;;;;;3.22;1.60;;;22.00;43.60;;;;;;5052982;28;20025;-38
2022/08/12 23:39:21;;;;;;;6.93;2.00;;;22.00;43.70;;;;;;5052886;28;20469;-37
2022/08/12 23:41:54;;;;;;;5.70;1.60;;;22.00;43.60;;;;;;5052734;28;20031;-40
2022/08/12 23:44:22;;;;;;;2.90;1.73;;;22.00;43.50;;;;;;5052907;28;20029;-38
2022/08/12 23:46:57;;;;;;;2.20;1.77;;;22.00;43.40;;;;;;5052441;28;20029;-39
2022/08/12 23:49:28;;;;;;;2.35;1.40;;;21.90;43.60;;;;;;5053003;28;20032;-38
2022/08/12 23:51:55;;;;;;;2.13;1.50;;;21.80;43.80;;;;;;5052841;28;20029;-38
2022/08/12 23:54:22;;;;;;;3.25;1.42;;;21.80;43.90;;;;;;5053176;28;20029;-38
2022/08/12 23:56:49;;;;;;;4.57;1.48;;;21.80;43.80;;;;;;5052857;28;20040;-39
2022/08/12 23:59:14;;;;;;;4.88;1.60;;;21.80;43.70;;;;;;5051532;28;20124;-39
